sensor_id;sensor_type;location;lat;lon;timestamp;pressure;altitude;pressure_sealevel;temperature;humidity
41312;BME280;27061;41.648;24.568;2023-05-13T00:02:15;86130.47;;;8.69;67.13
41312;BME280;27061;41.648;24.568;2023-05-13T00:04:42;86155.28;;;8.79;68.18
41312;BME280;27061;41.648;24.568;2023-05-13T00:07:09;86189.78;;;9.01;68.83
41312;BME280;27061;41.648;24.568;2023-05-13T00:09:36;86184.28;;;8.89;70.01
41312;BME280;27061;41.648;24.568;2023-05-13T00:12:03;86164.28;;;8.74;70.43
41312;BME280;27061;41.648;24.568;2023-05-13T00:14:30;86178.75;;;8.80;70.97
41312;BME280;27061;41.648;24.568;2023-05-13T00:16:57;86145.66;;;8.58;71.07
41312;BME280;27061;41.648;24.568;2023-05-13T00:19:25;86136.03;;;8.51;71.27
41312;BME280;27061;41.648;24.568;2023-05-13T00:21:52;86181.53;;;8.80;71.60
41312;BME280;27061;41.648;24.568;2023-05-13T00:24:19;86162.25;;;8.68;71.77
41312;BME280;27061;41.648;24.568;2023-05-13T00:26:46;86177.41;;;8.75;72.96
41312;BME280;27061;41.648;24.568;2023-05-13T00:29:13;86182.91;;;8.69;74.33
41312;BME280;27061;41.648;24.568;2023-05-13T00:31:40;86195.31;;;8.91;73.54
41312;BME280;27061;41.648;24.568;2023-05-13T00:34:07;86198.09;;;8.89;73.84
41312;BME280;27061;41.648;24.568;2023-05-13T00:36:34;86158.09;;;8.51;73.69
41312;BME280;27061;41.648;24.568;2023-05-13T00:39:01;86160.16;;;8.61;73.56
41312;BME280;27061;41.648;24.568;2023-05-13T00:41:29;86178.81;;;8.68;73.65
41312;BME280;27061;41.648;24.568;2023-05-13T00:43:56;86198.09;;;8.74;75.35
41312;BME280;27061;41.648;24.568;2023-05-13T00:46:23;86170.53;;;8.56;74.18
41312;BME280;27061;41.648;24.568;2023-05-13T00:48:51;86162.94;;;8.47;73.83
41312;BME280;27061;41.648;24.568;2023-05-13T00:51:18;86200.88;;;8.78;72.30
41312;BME280;27061;41.648;24.568;2023-05-13T00:53:46;86149.84;;;8.53;71.06
41312;BME280;27061;41.648;24.568;2023-05-13T00:56:13;86166.38;;;8.65;71.10
41312;BME280;27061;41.648;24.568;2023-05-13T00:58:43;86145.69;;;8.30;70.81
41312;BME280;27061;41.648;24.568;2023-05-13T01:04:19;86189.84;;;8.46;71.34
41312;BME280;27061;41.648;24.568;2023-05-13T01:07:08;86227.09;;;8.69;70.96
41312;BME280;27061;41.648;24.568;2023-05-13T01:12:28;86184.34;;;8.34;70.96
41312;BME280;27061;41.648;24.568;2023-05-13T01:15:09;86178.09;;;8.29;71.22
41312;BME280;27061;41.648;24.568;2023-05-13T01:20:22;86195.34;;;8.26;71.84
41312;BME280;27061;41.648;24.568;2023-05-13T01:22:50;86182.91;;;8.08;71.65
41312;BME280;27061;41.648;24.568;2023-05-13T01:25:18;86221.56;;;8.39;71.44
41312;BME280;27061;41.648;24.568;2023-05-13T01:27:45;86183.59;;;8.13;71.69
41312;BME280;27061;41.648;24.568;2023-05-13T01:30:15;86226.41;;;8.49;71.58
41312;BME280;27061;41.648;24.568;2023-05-13T01:32:42;86199.47;;;8.31;71.40
41312;BME280;27061;41.648;24.568;2023-05-13T01:35:10;86222.28;;;8.46;71.43
41312;BME280;27061;41.648;24.568;2023-05-13T01:37:42;86229.16;;;8.36;71.17
41312;BME280;27061;41.648;24.568;2023-05-13T01:40:11;86200.84;;;8.12;71.27
41312;BME280;27061;41.648;24.568;2023-05-13T01:43:00;86175.31;;;7.89;71.45
41312;BME280;27061;41.648;24.568;2023-05-13T01:45:28;86229.81;;;8.29;71.37
41312;BME280;27061;41.648;24.568;2023-05-13T01:47:56;86218.09;;;8.22;71.68
41312;BME280;27061;41.648;24.568;2023-05-13T01:50:25;86197.38;;;8.07;71.01
41312;BME280;27061;41.648;24.568;2023-05-13T01:52:52;86199.44;;;7.98;70.70
41312;BME280;27061;41.648;24.568;2023-05-13T01:55:19;86146.97;;;7.46;71.44
41312;BME280;27061;41.648;24.568;2023-05-13T01:57:47;86228.41;;;8.18;71.65
41312;BME280;27061;41.648;24.568;2023-05-13T02:00:15;86232.53;;;8.08;72.00
41312;BME280;27061;41.648;24.568;2023-05-13T02:02:42;86227.03;;;8.04;71.67
41312;BME280;27061;41.648;24.568;2023-05-13T02:05:09;86239.44;;;8.03;71.85
41312;BME280;27061;41.648;24.568;2023-05-13T02:07:37;86207.69;;;7.86;71.72
41312;BME280;27061;41.648;24.568;2023-05-13T02:10:04;86207.69;;;7.86;71.34
41312;BME280;27061;41.648;24.568;2023-05-13T02:12:32;86238.72;;;7.99;72.38
41312;BME280;27061;41.648;24.568;2023-05-13T02:14:59;86232.53;;;8.02;72.57
41312;BME280;27061;41.648;24.568;2023-05-13T02:17:29;86231.84;;;8.00;72.98
41312;BME280;27061;41.648;24.568;2023-05-13T02:19:56;86231.13;;;7.95;73.12
41312;BME280;27061;41.648;24.568;2023-05-13T02:22:23;86227.69;;;7.93;73.71
41312;BME280;27061;41.648;24.568;2023-05-13T02:24:50;86157.28;;;7.43;74.11
41312;BME280;27061;41.648;24.568;2023-05-13T02:27:17;86115.91;;;7.09;74.96
41312;BME280;27061;41.648;24.568;2023-05-13T02:29:44;86181.44;;;7.59;74.93
41312;BME280;27061;41.648;24.568;2023-05-13T02:32:11;86177.31;;;7.52;74.75
41312;BME280;27061;41.648;24.568;2023-05-13T02:34:38;86178.03;;;7.62;74.65
41312;BME280;27061;41.648;24.568;2023-05-13T02:37:05;86219.38;;;7.85;75.38
41312;BME280;27061;41.648;24.568;2023-05-13T02:39:39;86169.00;;;7.44;75.46
41312;BME280;27061;41.648;24.568;2023-05-13T02:42:06;86196.59;;;7.58;76.41
41312;BME280;27061;41.648;24.568;2023-05-13T02:44:33;86190.38;;;7.53;76.77
41312;BME280;27061;41.648;24.568;2023-05-13T02:47:01;86220.78;;;7.80;75.67
41312;BME280;27061;41.648;24.568;2023-05-13T02:49:28;86204.84;;;7.54;75.27
41312;BME280;27061;41.648;24.568;2023-05-13T02:51:55;86204.84;;;7.48;74.53
41312;BME280;27061;41.648;24.568;2023-05-13T02:54:29;86207.59;;;7.48;74.01
41312;BME280;27061;41.648;24.568;2023-05-13T02:56:56;86182.69;;;7.19;74.50
41312;BME280;27061;41.648;24.568;2023-05-13T02:59:23;86175.09;;;7.14;75.05
41312;BME280;27061;41.648;24.568;2023-05-13T03:01:51;86243.44;;;7.60;74.32
41312;BME280;27061;41.648;24.568;2023-05-13T03:04:18;86236.53;;;7.57;73.56
41312;BME280;27061;41.648;24.568;2023-05-13T03:06:45;86235.09;;;7.40;74.75
41312;BME280;27061;41.648;24.568;2023-05-13T03:09:13;86210.28;;;7.29;74.74
41312;BME280;27061;41.648;24.568;2023-05-13T03:11:40;86156.94;;;6.60;75.67
41312;BME280;27061;41.648;24.568;2023-05-13T03:14:07;86247.38;;;7.16;76.46
41312;BME280;27061;41.648;24.568;2023-05-13T03:16:34;86170.72;;;6.62;77.03
41312;BME280;27061;41.648;24.568;2023-05-13T03:19:01;86246.66;;;7.12;78.21
41312;BME280;27061;41.648;24.568;2023-05-13T03:21:28;86249.47;;;7.20;78.89
41312;BME280;27061;41.648;24.568;2023-05-13T03:23:55;86194.84;;;6.72;79.20
41312;BME280;27061;41.648;24.568;2023-05-13T03:26:23;86223.88;;;6.95;78.65
41312;BME280;27061;41.648;24.568;2023-05-13T03:28:50;86216.94;;;6.84;79.23
41312;BME280;27061;41.648;24.568;2023-05-13T03:31:18;86207.19;;;6.69;82.00
41312;BME280;27061;41.648;24.568;2023-05-13T03:33:45;86183.06;;;6.59;82.59
41312;BME280;27061;41.648;24.568;2023-05-13T03:36:13;86254.25;;;7.15;82.49
41312;BME280;27061;41.648;24.568;2023-05-13T03:38:40;86239.75;;;7.05;82.85
41312;BME280;27061;41.648;24.568;2023-05-13T03:41:07;86237.00;;;7.05;83.09
41312;BME280;27061;41.648;24.568;2023-05-13T03:43:34;86257.78;;;7.34;82.94
41312;BME280;27061;41.648;24.568;2023-05-13T03:46:06;86235.75;;;7.28;82.74
41312;BME280;27061;41.648;24.568;2023-05-13T03:48:33;86202.56;;;6.97;82.94
41312;BME280;27061;41.648;24.568;2023-05-13T03:51:01;86293.00;;;7.52;83.32
41312;BME280;27061;41.648;24.568;2023-05-13T03:53:28;86247.47;;;7.34;82.47
41312;BME280;27061;41.648;24.568;2023-05-13T03:55:56;86259.91;;;7.44;83.82
41312;BME280;27061;41.648;24.568;2023-05-13T03:58:26;86281.34;;;7.67;83.31
41312;BME280;27061;41.648;24.568;2023-05-13T04:00:53;86282.06;;;7.74;82.66
41312;BME280;27061;41.648;24.568;2023-05-13T04:03:20;86279.31;;;7.78;82.88
41312;BME280;27061;41.648;24.568;2023-05-13T04:05:48;86276.59;;;7.88;82.97
41312;BME280;27061;41.648;24.568;2023-05-13T04:08:16;86230.31;;;7.54;83.07
41312;BME280;27061;41.648;24.568;2023-05-13T04:10:43;86287.69;;;8.00;83.69
41312;BME280;27061;41.648;24.568;2023-05-13T04:13:10;86284.91;;;8.06;83.97
41312;BME280;27061;41.648;24.568;2023-05-13T04:15:37;86243.50;;;7.86;84.07
41312;BME280;27061;41.648;24.568;2023-05-13T04:18:05;86210.41;;;7.68;84.14
41312;BME280;27061;41.648;24.568;2023-05-13T04:20:33;86246.28;;;7.90;84.46
41312;BME280;27061;41.648;24.568;2023-05-13T04:23:00;86260.09;;;8.00;84.76
41312;BME280;27061;41.648;24.568;2023-05-13T04:25:28;86297.41;;;8.26;85.19
41312;BME280;27061;41.648;24.568;2023-05-13T04:27:55;86213.88;;;7.77;84.99
41312;BME280;27061;41.648;24.568;2023-05-13T04:30:28;86190.38;;;7.57;85.15
41312;BME280;27061;41.648;24.568;2023-05-13T04:32:55;86215.91;;;7.74;85.34
41312;BME280;27061;41.648;24.568;2023-05-13T04:35:23;86256.00;;;8.16;85.28
41312;BME280;27061;41.648;24.568;2023-05-13T04:37:55;86234.59;;;8.02;86.07
41312;BME280;27061;41.648;24.568;2023-05-13T04:40:22;86285.03;;;8.43;85.45
41312;BME280;27061;41.648;24.568;2023-05-13T04:42:51;86298.84;;;8.51;85.53
41312;BME280;27061;41.648;24.568;2023-05-13T04:45:31;86227.72;;;8.11;84.92
41312;BME280;27061;41.648;24.568;2023-05-13T04:47:59;86307.13;;;8.65;85.44
41312;BME280;27061;41.648;24.568;2023-05-13T04:50:26;86297.47;;;8.60;85.50
41312;BME280;27061;41.648;24.568;2023-05-13T04:52:54;86312.66;;;8.79;84.78
41312;BME280;27061;41.648;24.568;2023-05-13T04:55:22;86322.34;;;8.87;84.43
41312;BME280;27061;41.648;24.568;2023-05-13T04:57:53;86292.63;;;8.69;85.54
41312;BME280;27061;41.648;24.568;2023-05-13T05:00:20;86305.06;;;8.82;86.29
41312;BME280;27061;41.648;24.568;2023-05-13T05:02:49;86294.72;;;8.78;85.88
41312;BME280;27061;41.648;24.568;2023-05-13T05:05:17;86303.69;;;8.93;85.63
41312;BME280;27061;41.648;24.568;2023-05-13T05:07:45;86326.47;;;9.14;85.92
41312;BME280;27061;41.648;24.568;2023-05-13T05:10:12;86333.38;;;9.19;86.18
41312;BME280;27061;41.648;24.568;2023-05-13T05:12:47;86330.63;;;9.17;85.89
41312;BME280;27061;41.648;24.568;2023-05-13T05:15:14;86334.75;;;9.22;85.87
41312;BME280;27061;41.648;24.568;2023-05-13T05:17:44;86267.09;;;8.70;83.51
41312;BME280;27061;41.648;24.568;2023-05-13T05:20:12;86318.88;;;9.08;83.58
41312;BME280;27061;41.648;24.568;2023-05-13T05:22:39;86310.59;;;9.04;82.81
41312;BME280;27061;41.648;24.568;2023-05-13T05:25:10;86339.59;;;9.20;83.53
41312;BME280;27061;41.648;24.568;2023-05-13T05:27:37;86342.34;;;9.13;83.19
41312;BME280;27061;41.648;24.568;2023-05-13T05:30:05;86338.22;;;9.18;84.02
41312;BME280;27061;41.648;24.568;2023-05-13T05:32:34;86350.63;;;9.24;84.04
41312;BME280;27061;41.648;24.568;2023-05-13T05:35:03;86298.88;;;8.96;84.75
41312;BME280;27061;41.648;24.568;2023-05-13T05:37:31;86316.13;;;9.06;83.49
41312;BME280;27061;41.648;24.568;2023-05-13T05:39:59;86272.66;;;8.78;84.02
41312;BME280;27061;41.648;24.568;2023-05-13T05:42:27;86345.78;;;9.54;83.25
41312;BME280;27061;41.648;24.568;2023-05-13T05:44:54;86345.78;;;9.59;84.09
41312;BME280;27061;41.648;24.568;2023-05-13T05:47:22;86261.56;;;9.07;85.06
41312;BME280;27061;41.648;24.568;2023-05-13T05:49:49;86345.06;;;9.66;84.45
41312;BME280;27061;41.648;24.568;2023-05-13T05:52:17;86285.03;;;9.28;84.31
41312;BME280;27061;41.648;24.568;2023-05-13T05:54:44;86334.66;;;9.87;85.41
41312;BME280;27061;41.648;24.568;2023-05-13T05:57:11;86338.75;;;9.98;87.73
41312;BME280;27061;41.648;24.568;2023-05-13T05:59:38;86324.94;;;10.02;82.92
41312;BME280;27061;41.648;24.568;2023-05-13T06:02:06;86319.34;;;10.14;91.92
41312;BME280;27061;41.648;24.568;2023-05-13T06:04:34;86320.72;;;10.27;91.60
41312;BME280;27061;41.648;24.568;2023-05-13T06:07:01;86267.53;;;10.05;88.62
41312;BME280;27061;41.648;24.568;2023-05-13T06:09:28;86280.63;;;10.14;86.21
41312;BME280;27061;41.648;24.568;2023-05-13T06:11:56;86321.25;;;10.56;85.70
41312;BME280;27061;41.648;24.568;2023-05-13T06:14:23;86272.25;;;10.28;86.03
41312;BME280;27061;41.648;24.568;2023-05-13T06:16:50;86218.44;;;9.97;84.61
41312;BME280;27061;41.648;24.568;2023-05-13T06:19:19;86335.63;;;10.83;83.45
41312;BME280;27061;41.648;24.568;2023-05-13T06:21:47;86332.84;;;10.85;81.82
41312;BME280;27061;41.648;24.568;2023-05-13T06:24:14;86265.25;;;10.48;81.72
41312;BME280;27061;41.648;24.568;2023-05-13T06:26:41;86259.00;;;10.51;83.91
41312;BME280;27061;41.648;24.568;2023-05-13T06:29:12;86303.88;;;10.70;82.69
41312;BME280;27061;41.648;24.568;2023-05-13T06:31:39;86327.25;;;10.97;81.77
41312;BME280;27061;41.648;24.568;2023-05-13T06:34:07;86329.88;;;11.18;80.78
41312;BME280;27061;41.648;24.568;2023-05-13T06:36:34;86329.78;;;11.28;80.70
41312;BME280;27061;41.648;24.568;2023-05-13T06:39:03;86333.22;;;11.32;81.17
41312;BME280;27061;41.648;24.568;2023-05-13T06:41:32;86297.31;;;11.20;81.55
41312;BME280;27061;41.648;24.568;2023-05-13T06:44:06;86326.81;;;11.54;80.61
41312;BME280;27061;41.648;24.568;2023-05-13T06:46:37;86269.06;;;11.02;76.45
41312;BME280;27061;41.648;24.568;2023-05-13T06:49:04;86345.44;;;11.64;77.44
41312;BME280;27061;41.648;24.568;2023-05-13T06:51:32;86345.97;;;11.85;75.65
41312;BME280;27061;41.648;24.568;2023-05-13T06:54:00;86340.38;;;11.89;74.08
41312;BME280;27061;41.648;24.568;2023-05-13T06:56:28;86301.03;;;11.68;80.18
41312;BME280;27061;41.648;24.568;2023-05-13T06:58:56;86338.78;;;12.10;80.56
41312;BME280;27061;41.648;24.568;2023-05-13T07:01:22;86337.28;;;12.21;81.30
41312;BME280;27061;41.648;24.568;2023-05-13T07:03:49;86339.94;;;12.33;75.45
41312;BME280;27061;41.648;24.568;2023-05-13T07:06:17;86352.19;;;12.53;74.66
41312;BME280;27061;41.648;24.568;2023-05-13T07:08:44;86350.75;;;12.58;70.95
41312;BME280;27061;41.648;24.568;2023-05-13T07:11:11;86321.78;;;12.42;70.72
41312;BME280;27061;41.648;24.568;2023-05-13T07:13:38;86345.25;;;12.54;71.89
41312;BME280;27061;41.648;24.568;2023-05-13T07:16:05;86329.66;;;12.79;77.87
41312;BME280;27061;41.648;24.568;2023-05-13T07:18:33;86304.03;;;12.72;76.67
41312;BME280;27061;41.648;24.568;2023-05-13T07:21:00;86303.22;;;12.82;76.87
41312;BME280;27061;41.648;24.568;2023-05-13T07:23:27;86323.75;;;13.03;71.84
41312;BME280;27061;41.648;24.568;2023-05-13T07:25:56;86296.03;;;12.99;71.06
41312;BME280;27061;41.648;24.568;2023-05-13T07:28:23;86319.84;;;13.35;70.71
41312;BME280;27061;41.648;24.568;2023-05-13T07:30:50;86313.81;;;13.23;65.85
41312;BME280;27061;41.648;24.568;2023-05-13T07:33:19;86334.28;;;13.48;69.56
41312;BME280;27061;41.648;24.568;2023-05-13T07:35:46;86292.72;;;13.36;65.42
41312;BME280;27061;41.648;24.568;2023-05-13T07:38:13;86331.09;;;13.74;68.90
41312;BME280;27061;41.648;24.568;2023-05-13T07:40:41;86295.13;;;13.60;69.60
41312;BME280;27061;41.648;24.568;2023-05-13T07:43:08;86331.00;;;13.78;68.16
41312;BME280;27061;41.648;24.568;2023-05-13T07:45:35;86341.88;;;13.95;69.79
41312;BME280;27061;41.648;24.568;2023-05-13T07:48:02;86278.38;;;13.64;65.10
41312;BME280;27061;41.648;24.568;2023-05-13T07:50:30;86263.31;;;13.49;68.09
41312;BME280;27061;41.648;24.568;2023-05-13T07:52:57;86336.00;;;14.13;66.41
41312;BME280;27061;41.648;24.568;2023-05-13T07:55:24;86312.84;;;13.83;62.47
41312;BME280;27061;41.648;24.568;2023-05-13T07:57:53;86319.66;;;13.92;63.08
41312;BME280;27061;41.648;24.568;2023-05-13T08:00:20;86288.06;;;13.67;65.00
41312;BME280;27061;41.648;24.568;2023-05-13T08:02:47;86313.16;;;14.06;66.44
41312;BME280;27061;41.648;24.568;2023-05-13T08:05:14;86331.63;;;14.24;65.88
41312;BME280;27061;41.648;24.568;2023-05-13T08:07:41;86346.19;;;14.28;66.05
41312;BME280;27061;41.648;24.568;2023-05-13T08:10:11;86331.69;;;14.20;64.39
41312;BME280;27061;41.648;24.568;2023-05-13T08:12:38;86349.44;;;14.41;60.47
41312;BME280;27061;41.648;24.568;2023-05-13T08:15:06;86342.56;;;14.36;59.37
41312;BME280;27061;41.648;24.568;2023-05-13T08:17:33;86308.88;;;14.11;60.87
41312;BME280;27061;41.648;24.568;2023-05-13T08:20:00;86297.41;;;13.90;62.12
41312;BME280;27061;41.648;24.568;2023-05-13T08:22:29;86271.28;;;13.73;59.13
41312;BME280;27061;41.648;24.568;2023-05-13T08:24:56;86290.47;;;13.89;59.93
41312;BME280;27061;41.648;24.568;2023-05-13T08:27:26;86282.16;;;13.87;64.39
41312;BME280;27061;41.648;24.568;2023-05-13T08:29:53;86348.09;;;14.40;60.98
41312;BME280;27061;41.648;24.568;2023-05-13T08:32:20;86352.09;;;14.49;57.62
41312;BME280;27061;41.648;24.568;2023-05-13T08:34:49;86344.53;;;14.44;60.14
41312;BME280;27061;41.648;24.568;2023-05-13T08:37:16;86342.53;;;14.38;60.42
41312;BME280;27061;41.648;24.568;2023-05-13T08:39:43;86287.59;;;13.96;58.04
41312;BME280;27061;41.648;24.568;2023-05-13T08:42:10;86347.94;;;14.48;57.28
41312;BME280;27061;41.648;24.568;2023-05-13T08:44:38;86319.03;;;14.27;60.90
41312;BME280;27061;41.648;24.568;2023-05-13T08:50:02;86325.75;;;14.42;60.87
41312;BME280;27061;41.648;24.568;2023-05-13T08:52:30;86295.44;;;14.24;60.88
41312;BME280;27061;41.648;24.568;2023-05-13T08:54:58;86341.25;;;14.70;60.92
41312;BME280;27061;41.648;24.568;2023-05-13T08:57:26;86336.41;;;14.69;62.80
41312;BME280;27061;41.648;24.568;2023-05-13T08:59:54;86305.69;;;14.34;66.02
41312;BME280;27061;41.648;24.568;2023-05-13T09:02:21;86254.59;;;14.10;64.61
41312;BME280;27061;41.648;24.568;2023-05-13T09:04:52;86323.94;;;14.63;65.28
41312;BME280;27061;41.648;24.568;2023-05-13T09:07:19;86341.81;;;14.77;63.97
41312;BME280;27061;41.648;24.568;2023-05-13T09:09:49;86317.25;;;14.50;63.63
41312;BME280;27061;41.648;24.568;2023-05-13T09:12:54;86347.22;;;14.85;62.10
41312;BME280;27061;41.648;24.568;2023-05-13T09:15:23;86326.63;;;14.70;60.43
41312;BME280;27061;41.648;24.568;2023-05-13T09:18:03;86321.22;;;14.61;61.63
41312;BME280;27061;41.648;24.568;2023-05-13T09:20:31;86354.94;;;14.82;62.33
41312;BME280;27061;41.648;24.568;2023-05-13T09:23:01;86299.91;;;14.46;63.26
41312;BME280;27061;41.648;24.568;2023-05-13T09:25:30;86328.00;;;14.71;63.29
41312;BME280;27061;41.648;24.568;2023-05-13T09:28:01;86324.50;;;14.72;63.48
41312;BME280;27061;41.648;24.568;2023-05-13T09:30:33;86360.34;;;14.90;59.22
41312;BME280;27061;41.648;24.568;2023-05-13T09:33:11;86311.03;;;14.48;58.97
41312;BME280;27061;41.648;24.568;2023-05-13T09:35:41;86360.22;;;14.96;60.02
41312;BME280;27061;41.648;24.568;2023-05-13T09:38:19;86356.69;;;15.00;61.08
41312;BME280;27061;41.648;24.568;2023-05-13T09:43:22;86279.72;;;14.45;62.17
41312;BME280;27061;41.648;24.568;2023-05-13T09:45:54;86357.19;;;15.09;62.35
41312;BME280;27061;41.648;24.568;2023-05-13T09:48:24;86318.09;;;14.78;63.26
41312;BME280;27061;41.648;24.568;2023-05-13T09:50:51;86364.66;;;15.18;63.11
41312;BME280;27061;41.648;24.568;2023-05-13T09:53:19;86353.59;;;15.14;63.30
41312;BME280;27061;41.648;24.568;2023-05-13T09:55:48;86302.53;;;14.89;61.14
41312;BME280;27061;41.648;24.568;2023-05-13T09:58:15;86344.41;;;15.20;62.23
41312;BME280;27061;41.648;24.568;2023-05-13T10:00:42;86347.75;;;15.26;61.54
41312;BME280;27061;41.648;24.568;2023-05-13T10:03:10;86363.25;;;15.19;58.41
41312;BME280;27061;41.648;24.568;2023-05-13T10:05:38;86360.13;;;15.35;60.75
41312;BME280;27061;41.648;24.568;2023-05-13T10:08:10;86344.88;;;15.30;63.19
41312;BME280;27061;41.648;24.568;2023-05-13T10:10:39;86283.03;;;14.89;59.71
41312;BME280;27061;41.648;24.568;2023-05-13T10:13:12;86337.25;;;15.29;62.99
41312;BME280;27061;41.648;24.568;2023-05-13T10:15:47;86360.94;;;15.63;58.91
41312;BME280;27061;41.648;24.568;2023-05-13T10:18:17;86353.63;;;15.78;63.53
41312;BME280;27061;41.648;24.568;2023-05-13T10:20:45;86322.88;;;15.80;63.73
41312;BME280;27061;41.648;24.568;2023-05-13T10:23:12;86267.41;;;15.35;60.62
41312;BME280;27061;41.648;24.568;2023-05-13T10:25:40;86362.47;;;15.89;56.68
41312;BME280;27061;41.648;24.568;2023-05-13T10:28:09;86312.63;;;15.70;57.34
41312;BME280;27061;41.648;24.568;2023-05-13T10:30:37;86307.38;;;15.56;58.91
41312;BME280;27061;41.648;24.568;2023-05-13T10:33:04;86347.50;;;16.00;59.52
41312;BME280;27061;41.648;24.568;2023-05-13T10:35:39;86326.94;;;15.85;61.39
41312;BME280;27061;41.648;24.568;2023-05-13T10:43:36;86373.69;;;16.16;55.29
41312;BME280;27061;41.648;24.568;2023-05-13T10:46:05;86360.94;;;16.23;55.08
41312;BME280;27061;41.648;24.568;2023-05-13T10:48:57;86376.31;;;16.22;54.58
41312;BME280;27061;41.648;24.568;2023-05-13T10:51:25;86334.69;;;15.83;57.10
41312;BME280;27061;41.648;24.568;2023-05-13T10:53:54;86377.13;;;16.18;56.88
41312;BME280;27061;41.648;24.568;2023-05-13T10:56:24;86358.63;;;16.02;56.13
41312;BME280;27061;41.648;24.568;2023-05-13T10:58:59;86381.66;;;16.32;58.34
41312;BME280;27061;41.648;24.568;2023-05-13T11:01:37;86369.47;;;16.17;56.20
41312;BME280;27061;41.648;24.568;2023-05-13T11:04:15;86380.25;;;16.33;56.15
41312;BME280;27061;41.648;24.568;2023-05-13T11:06:44;86369.19;;;16.29;56.84
41312;BME280;27061;41.648;24.568;2023-05-13T11:09:29;86341.78;;;16.06;53.04
41312;BME280;27061;41.648;24.568;2023-05-13T11:11:59;86308.97;;;15.78;55.54
41312;BME280;27061;41.648;24.568;2023-05-13T11:14:29;86375.09;;;16.15;56.64
41312;BME280;27061;41.648;24.568;2023-05-13T11:21:56;86379.28;;;16.16;56.18
41312;BME280;27061;41.648;24.568;2023-05-13T11:24:24;86380.66;;;16.17;56.30
41312;BME280;27061;41.648;24.568;2023-05-13T11:26:54;86358.06;;;15.98;57.50
41312;BME280;27061;41.648;24.568;2023-05-13T11:29:34;86397.50;;;16.13;56.96
41312;BME280;27061;41.648;24.568;2023-05-13T11:32:03;86349.28;;;15.85;56.38
41312;BME280;27061;41.648;24.568;2023-05-13T11:34:32;86388.09;;;15.97;58.77
41312;BME280;27061;41.648;24.568;2023-05-13T11:39:30;86378.47;;;15.90;63.16
41312;BME280;27061;41.648;24.568;2023-05-13T11:41:59;86384.38;;;15.76;65.96
41312;BME280;27061;41.648;24.568;2023-05-13T11:44:31;86370.50;;;15.72;67.09
41312;BME280;27061;41.648;24.568;2023-05-13T11:47:02;86377.03;;;15.91;70.88
41312;BME280;27061;41.648;24.568;2023-05-13T11:54:43;86282.44;;;15.15;69.75
41312;BME280;27061;41.648;24.568;2023-05-13T12:00:04;86367.16;;;15.96;68.61
41312;BME280;27061;41.648;24.568;2023-05-13T12:02:38;86352.88;;;15.80;70.13
41312;BME280;27061;41.648;24.568;2023-05-13T12:05:07;86336.50;;;15.94;66.22
41312;BME280;27061;41.648;24.568;2023-05-13T12:07:36;86358.34;;;16.15;62.54
41312;BME280;27061;41.648;24.568;2023-05-13T12:10:05;86368.28;;;16.36;62.97
41312;BME280;27061;41.648;24.568;2023-05-13T12:12:37;86343.00;;;16.14;61.33
41312;BME280;27061;41.648;24.568;2023-05-13T12:15:07;86360.34;;;16.47;59.74
41312;BME280;27061;41.648;24.568;2023-05-13T12:17:36;86361.53;;;16.27;58.72
41312;BME280;27061;41.648;24.568;2023-05-13T12:22:55;86350.81;;;16.38;59.32
41312;BME280;27061;41.648;24.568;2023-05-13T12:25:48;86350.06;;;16.39;59.86
41312;BME280;27061;41.648;24.568;2023-05-13T12:28:20;86356.81;;;16.48;62.49
41312;BME280;27061;41.648;24.568;2023-05-13T12:30:57;86364.06;;;16.66;67.06
41312;BME280;27061;41.648;24.568;2023-05-13T12:33:40;86372.09;;;16.80;66.03
41312;BME280;27061;41.648;24.568;2023-05-13T12:36:22;86376.69;;;16.92;63.14
41312;BME280;27061;41.648;24.568;2023-05-13T12:38:57;86352.56;;;16.78;62.20
41312;BME280;27061;41.648;24.568;2023-05-13T12:41:29;86375.72;;;17.02;59.05
41312;BME280;27061;41.648;24.568;2023-05-13T12:44:01;86378.28;;;17.10;58.42
41312;BME280;27061;41.648;24.568;2023-05-13T12:46:30;86315.81;;;16.68;57.53
41312;BME280;27061;41.648;24.568;2023-05-13T12:49:00;86352.94;;;16.91;54.28
41312;BME280;27061;41.648;24.568;2023-05-13T12:51:28;86381.28;;;17.04;54.34
41312;BME280;27061;41.648;24.568;2023-05-13T12:53:56;86349.25;;;16.72;56.40
41312;BME280;27061;41.648;24.568;2023-05-13T12:56:24;86380.16;;;16.93;59.35
41312;BME280;27061;41.648;24.568;2023-05-13T12:58:52;86380.44;;;16.82;58.65
41312;BME280;27061;41.648;24.568;2023-05-13T13:01:20;86381.84;;;16.81;58.33
41312;BME280;27061;41.648;24.568;2023-05-13T13:03:47;86380.69;;;16.72;59.08
41312;BME280;27061;41.648;24.568;2023-05-13T13:06:15;86343.47;;;16.51;58.87
41312;BME280;27061;41.648;24.568;2023-05-13T13:08:42;86384.69;;;16.79;58.82
41312;BME280;27061;41.648;24.568;2023-05-13T13:11:09;86335.16;;;16.49;59.06
41312;BME280;27061;41.648;24.568;2023-05-13T13:13:41;86344.66;;;16.60;58.04
41312;BME280;27061;41.648;24.568;2023-05-13T13:16:09;86333.88;;;16.44;56.96
41312;BME280;27061;41.648;24.568;2023-05-13T13:18:36;86357.38;;;16.53;58.08
41312;BME280;27061;41.648;24.568;2023-05-13T13:21:03;86375.28;;;16.64;58.02
41312;BME280;27061;41.648;24.568;2023-05-13T13:23:31;86380.78;;;16.68;57.22
41312;BME280;27061;41.648;24.568;2023-05-13T13:25:59;86382.13;;;16.71;56.48
41312;BME280;27061;41.648;24.568;2023-05-13T13:28:26;86372.41;;;16.68;57.00
41312;BME280;27061;41.648;24.568;2023-05-13T13:30:53;86379.56;;;16.61;56.82
41312;BME280;27061;41.648;24.568;2023-05-13T13:33:21;86324.69;;;16.21;55.85
41312;BME280;27061;41.648;24.568;2023-05-13T13:35:48;86367.31;;;16.48;56.33
41312;BME280;27061;41.648;24.568;2023-05-13T13:38:15;86388.88;;;16.52;56.93
41312;BME280;27061;41.648;24.568;2023-05-13T13:40:42;86371.81;;;16.35;58.06
41312;BME280;27061;41.648;24.568;2023-05-13T13:43:09;86389.75;;;16.44;58.32